Time;durP1;ratioP1;P1;durP2;ratioP2;P2;SDS_P1;SDS_P2;PMS_P1;PMS_P2;Temp;Humidity;BMP_temperature;BMP_pressure;BME280_temperature;BME280_humidity;BME280_pressure;Samples;Min_cycle;Max_cycle;Signal;HPM_P1;HPM_P2
2022/10/21 00:02:48;;;;;;;9.80;2.95;;;;;;;2.66;100.00;100897.31;6272024;28;20068;-75
2022/10/21 00:05:49;;;;;;;5.28;2.92;;;;;;;2.65;100.00;100899.06;6271693;28;20037;-74
2022/10/21 00:08:51;;;;;;;3.55;2.47;;;;;;;2.60;100.00;100895.72;6282194;28;20624;-75
2022/10/21 00:11:51;;;;;;;6.05;2.60;;;;;;;2.59;100.00;100894.00;6286451;28;20079;-75
2022/10/21 00:14:54;;;;;;;4.75;3.17;;;;;;;2.59;100.00;100896.56;6298301;28;20135;-76
2022/10/21 00:17:58;;;;;;;5.32;3.13;;;;;;;2.49;100.00;100895.00;6297531;28;20472;-76
2022/10/21 00:20:59;;;;;;;3.50;2.47;;;;;;;2.35;100.00;100883.19;6290721;28;20099;-76
2022/10/21 00:24:00;;;;;;;6.65;2.67;;;;;;;2.44;100.00;100882.19;6273803;28;20076;-76
2022/10/21 00:27:01;;;;;;;5.32;3.25;;;;;;;2.39;100.00;100882.25;6273527;28;20043;-75
2022/10/21 00:30:06;;;;;;;2.67;1.87;;;;;;;2.35;100.00;100878.03;6273559;28;20097;-76
2022/10/21 00:33:06;;;;;;;6.82;2.58;;;;;;;2.30;100.00;100869.50;6286515;28;20032;-76
2022/10/21 00:36:13;;;;;;;3.08;1.92;;;;;;;2.32;100.00;100869.47;6297830;28;20044;-75
2022/10/21 00:39:14;;;;;;;4.95;2.67;;;;;;;2.29;100.00;100854.09;6298156;28;20124;-76
2022/10/21 00:42:18;;;;;;;2.90;2.20;;;;;;;2.36;100.00;100869.41;6298058;28;20048;-76
2022/10/21 00:45:22;;;;;;;5.75;2.45;;;;;;;2.39;100.00;100871.13;6296509;28;20052;-75
2022/10/21 00:48:31;;;;;;;3.17;2.03;;;;;;;2.43;100.00;100872.78;6297848;28;20048;-75
2022/10/21 00:51:32;;;;;;;9.07;2.92;;;;;;;2.32;100.00;100872.91;6297713;28;20105;-75
2022/10/21 00:54:36;;;;;;;6.00;1.90;;;;;;;2.25;100.00;100863.56;6296519;28;20044;-75
2022/10/21 00:57:37;;;;;;;6.15;3.10;;;;;;;2.24;100.00;100851.56;6297626;28;20499;-75
2022/10/21 01:00:38;;;;;;;7.25;3.33;;;;;;;2.20;100.00;100844.75;6279627;28;20061;-75
2022/10/21 01:03:39;;;;;;;7.05;3.63;;;;;;;2.25;100.00;100853.28;6294533;28;20135;-75
2022/10/21 01:06:40;;;;;;;6.28;3.63;;;;;;;2.21;100.00;100849.88;6272056;28;20037;-75
2022/10/21 01:09:41;;;;;;;5.25;2.92;;;;;;;2.14;100.00;100848.28;6271383;28;20041;-75
2022/10/21 01:12:48;;;;;;;2.88;2.17;;;;;;;2.11;100.00;100848.31;6254535;28;20048;-76
2022/10/21 01:16:09;;;;;;;6.35;2.13;;;;;;;2.13;100.00;100843.16;6270401;28;20059;-75
2022/10/21 01:19:31;;;;;;;6.93;2.25;;;;;;;2.05;100.00;100837.25;6270784;28;20504;-76
2022/10/21 01:22:44;;;;;;;5.18;2.88;;;;;;;2.00;100.00;100830.44;6271255;28;20048;-75
2022/10/21 01:26:23;;;;;;;3.25;2.30;;;;;;;2.11;100.00;100834.59;6270646;28;20497;-75
2022/10/21 01:30:04;;;;;;;3.15;2.13;;;;;;;2.02;100.00;100833.00;6270491;28;20048;-75
2022/10/21 01:33:11;;;;;;;4.00;2.08;;;;;;;2.01;100.00;100826.97;6274446;28;20454;-76
2022/10/21 01:36:16;;;;;;;5.00;2.60;;;;;;;2.00;100.00;100821.88;6284312;28;20045;-75
2022/10/21 01:39:37;;;;;;;6.60;2.47;;;;;;;1.98;100.00;100827.03;6282229;28;20072;-75
2022/10/21 01:43:27;;;;;;;2.63;1.92;;;;;;;1.97;100.00;100830.47;6295103;28;20040;-75
2022/10/21 01:46:42;;;;;;;2.22;1.63;;;;;;;1.91;100.00;100825.41;6266686;28;20056;-76
2022/10/21 01:50:03;;;;;;;4.13;2.50;;;;;;;1.91;100.00;100821.97;6294934;28;20052;-76
2022/10/21 01:53:11;;;;;;;3.00;1.88;;;;;;;1.83;100.00;100816.91;6290917;28;20033;-75
2022/10/21 01:56:16;;;;;;;4.07;1.50;;;;;;;1.86;100.00;100805.75;6271138;28;20524;-75
2022/10/21 01:59:20;;;;;;;1.73;1.40;;;;;;;1.85;100.00;100811.75;6269901;28;20448;-75
2022/10/21 02:02:25;;;;;;;2.17;1.33;;;;;;;1.84;100.00;100810.91;6285818;28;20044;-75
2022/10/21 02:05:31;;;;;;;3.97;1.90;;;;;;;1.80;100.00;100799.81;6294608;28;20044;-76
2022/10/21 02:08:32;;;;;;;2.33;1.33;;;;;;;1.83;100.00;100793.75;6295856;28;20409;-76
2022/10/21 02:11:36;;;;;;;2.30;1.52;;;;;;;1.84;100.00;100795.47;6294733;28;20036;-77
2022/10/21 02:14:44;;;;;;;10.95;2.63;;;;;;;1.88;100.00;100797.13;6295630;28;20040;-76
2022/10/21 02:17:57;;;;;;;0.95;0.93;;;;;;;1.77;100.00;100789.56;6294573;28;20052;-76
2022/10/21 02:21:04;;;;;;;2.38;1.88;;;;;;;1.76;100.00;100792.16;6300440;28;20044;-76
2022/10/21 02:24:32;;;;;;;2.75;1.85;;;;;;;1.69;100.00;100790.50;6300186;28;20066;-76
2022/10/21 02:27:32;;;;;;;2.50;1.65;;;;;;;1.68;100.00;100793.97;6300132;28;20052;-76
2022/10/21 02:30:59;;;;;;;5.88;3.92;;;;;;;1.64;100.00;100794.88;6300147;28;20040;-76
2022/10/21 02:34:40;;;;;;;6.90;4.03;;;;;;;1.65;100.00;100799.13;6276009;28;20084;-75
2022/10/21 02:37:53;;;;;;;4.22;3.22;;;;;;;1.67;100.00;100805.13;6292205;28;20057;-75
2022/10/21 02:41:00;;;;;;;32.90;2.92;;;;;;;1.65;100.00;100804.28;6298777;28;20044;-76
2022/10/21 02:44:03;;;;;;;2.22;1.88;;;;;;;1.64;100.00;100802.59;6299871;28;20068;-75
2022/10/21 02:47:04;;;;;;;3.30;1.77;;;;;;;1.58;100.00;100804.34;6298398;28;20083;-75
2022/10/21 02:50:08;;;;;;;5.38;2.60;;;;;;;1.59;100.00;100812.94;6281746;28;20129;-75
2022/10/21 02:53:12;;;;;;;3.47;1.65;;;;;;;1.56;100.00;100805.25;6298410;28;20131;-75
2022/10/21 02:56:13;;;;;;;2.22;1.50;;;;;;;1.51;100.00;100796.75;6298315;28;20175;-75
2022/10/21 02:59:13;;;;;;;5.30;2.30;;;;;;;1.52;100.00;100795.88;6276645;28;20127;-75
2022/10/21 03:02:14;;;;;;;2.72;1.60;;;;;;;1.50;100.00;100801.03;6273508;28;20087;-76
2022/10/21 03:05:15;;;;;;;1.98;1.52;;;;;;;1.52;100.00;100799.28;6256567;28;20523;-74
2022/10/21 03:08:16;;;;;;;1.40;1.08;;;;;;;1.48;100.00;100797.63;6274413;28;20061;-76
2022/10/21 03:11:17;;;;;;;2.33;2.00;;;;;;;1.48;100.00;100795.03;6274411;28;20348;-76
2022/10/21 03:14:20;;;;;;;4.53;2.20;;;;;;;1.49;100.00;100807.06;6273080;28;20432;-76
2022/10/21 03:17:23;;;;;;;1.48;1.27;;;;;;;1.55;100.00;100813.84;6272909;28;20045;-75
2022/10/21 03:20:26;;;;;;;3.45;1.25;;;;;;;1.49;100.00;100816.50;6274300;28;20041;-75
2022/10/21 03:23:27;;;;;;;4.32;1.55;;;;;;;1.47;100.00;100805.38;6274090;28;20048;-75
2022/10/21 03:26:27;;;;;;;1.73;1.50;;;;;;;1.45;100.00;100805.38;6272691;28;20037;-76
2022/10/21 03:29:28;;;;;;;2.00;1.25;;;;;;;1.47;100.00;100803.66;6272547;28;20503;-75
2022/10/21 03:32:29;;;;;;;2.17;1.45;;;;;;;1.43;100.00;100804.56;6272316;28;20504;-75
2022/10/21 03:35:29;;;;;;;1.83;1.27;;;;;;;1.40;100.00;100791.72;6255917;28;20256;-76
2022/10/21 03:38:30;;;;;;;6.50;2.30;;;;;;;1.35;100.00;100781.47;6272408;28;20052;-75
2022/10/21 03:41:31;;;;;;;1.83;1.25;;;;;;;1.37;100.00;100778.91;6272600;28;20065;-76
2022/10/21 03:44:32;;;;;;;3.35;1.73;;;;;;;1.41;100.00;100791.69;6272378;28;20064;-76
2022/10/21 03:47:35;;;;;;;3.08;2.15;;;;;;;1.36;100.00;100782.31;6272260;28;20057;-77
2022/10/21 03:50:35;;;;;;;4.53;1.40;;;;;;;1.36;100.00;100780.63;6272236;28;20187;-76
2022/10/21 03:53:38;;;;;;;1.52;1.20;;;;;;;1.35;100.00;100775.50;6272335;28;20485;-76
2022/10/21 03:56:39;;;;;;;2.38;1.42;;;;;;;1.35;100.00;100781.47;6273321;28;20137;-76
2022/10/21 03:59:40;;;;;;;1.35;1.25;;;;;;;1.25;100.00;100785.03;6284438;28;20048;-76
2022/10/21 04:02:40;;;;;;;2.17;1.20;;;;;;;1.27;100.00;100790.16;6297759;28;20051;-75
2022/10/21 04:05:41;;;;;;;2.15;1.73;;;;;;;1.23;100.00;100785.91;6293756;28;20068;-75
2022/10/21 04:08:42;;;;;;;2.70;1.42;;;;;;;1.22;100.00;100787.66;6298682;28;20049;-76
2022/10/21 04:11:42;;;;;;;2.40;1.27;;;;;;;1.17;100.00;100767.13;6282327;28;20048;-76
2022/10/21 04:14:46;;;;;;;1.38;1.20;;;;;;;1.15;100.00;100752.56;6280374;28;20515;-76
2022/10/21 04:17:46;;;;;;;1.40;1.25;;;;;;;1.09;100.00;100761.22;6293297;28;20117;-75
2022/10/21 04:20:47;;;;;;;4.32;1.88;;;;;;;1.10;100.00;100750.06;6296344;28;20048;-75
2022/10/21 04:23:48;;;;;;;3.63;2.20;;;;;;;1.12;100.00;100747.50;6295297;28;20404;-75
2022/10/21 04:26:48;;;;;;;2.88;2.15;;;;;;;1.02;100.00;100730.47;6272614;28;20033;-75
2022/10/21 04:29:49;;;;;;;1.95;1.35;;;;;;;0.99;100.00;100741.63;6272752;28;20051;-75
2022/10/21 04:32:50;;;;;;;3.75;2.60;;;;;;;1.00;100.00;100739.03;6271553;28;20153;-75
2022/10/21 04:35:53;;;;;;;4.28;2.92;;;;;;;1.03;100.00;100742.44;6272465;28;20045;-75
2022/10/21 04:38:54;;;;;;;5.18;2.95;;;;;;;1.01;100.00;100719.34;6270871;28;20558;-75
2022/10/21 04:41:57;;;;;;;10.00;3.25;;;;;;;1.01;100.00;100727.03;6275467;28;20040;-75
2022/10/21 04:44:57;;;;;;;8.32;2.97;;;;;;;1.00;100.00;100746.72;6281011;28;20044;-76
2022/10/21 04:47:58;;;;;;;5.30;3.03;;;;;;;0.96;100.00;100744.22;6282552;28;20044;-76
2022/10/21 04:51:01;;;;;;;2.47;1.70;;;;;;;0.97;100.00;100741.63;6286916;28;20499;-76
2022/10/21 04:54:04;;;;;;;7.20;1.70;;;;;;;1.00;100.00;100744.16;6295545;28;20488;-76
2022/10/21 04:57:05;;;;;;;8.75;2.60;;;;;;;0.99;100.00;100744.22;6296534;28;20047;-76
2022/10/21 05:00:06;;;;;;;4.80;2.75;;;;;;;0.94;100.00;100736.53;6296528;28;20044;-76
2022/10/21 05:03:07;;;;;;;4.43;2.08;;;;;;;1.07;100.00;100729.56;6295339;28;20064;-76
2022/10/21 05:06:10;;;;;;;3.75;2.33;;;;;;;1.10;100.00;100738.94;6295159;28;20101;-77
2022/10/21 05:09:11;;;;;;;3.25;1.88;;;;;;;1.10;100.00;100737.22;6296395;28;20044;-77
2022/10/21 05:12:12;;;;;;;2.50;2.03;;;;;;;1.13;100.00;100739.75;6278507;28;20139;-76
2022/10/21 05:15:15;;;;;;;5.07;2.38;;;;;;;1.11;100.00;100745.75;6296222;28;20080;-76
2022/10/21 05:18:15;;;;;;;3.53;2.40;;;;;;;1.07;100.00;100739.84;6295250;28;20045;-76
2022/10/21 05:21:16;;;;;;;3.67;2.20;;;;;;;1.09;100.00;100735.53;6296285;28;20043;-77
2022/10/21 05:24:17;;;;;;;3.90;2.30;;;;;;;1.08;100.00;100733.81;6296118;28;20051;-76
2022/10/21 05:27:18;;;;;;;3.30;1.88;;;;;;;1.12;100.00;100730.34;6288025;28;20516;-77
2022/10/21 05:30:18;;;;;;;3.45;2.47;;;;;;;1.17;100.00;100731.16;6290784;28;20037;-77
2022/10/21 05:33:19;;;;;;;4.32;2.53;;;;;;;1.22;100.00;100737.97;6269708;28;20473;-76
2022/10/21 05:36:20;;;;;;;5.15;2.70;;;;;;;1.32;100.00;100742.09;6262185;28;20052;-77
2022/10/21 05:39:20;;;;;;;4.10;2.53;;;;;;;1.35;100.00;100735.19;6281447;28;20137;-75
2022/10/21 05:42:21;;;;;;;15.00;5.95;;;;;;;1.40;100.00;100730.00;6286261;28;20061;-76
2022/10/21 05:45:22;;;;;;;42.35;15.55;;;;;;;1.48;100.00;100732.47;6277455;28;20077;-75
2022/10/21 05:48:23;;;;;;;38.30;11.80;;;;;;;1.52;100.00;100719.56;6280763;28;20095;-75
2022/10/21 05:51:27;;;;;;;19.42;8.60;;;;;;;1.56;100.00;100723.78;6294062;28;20044;-75
2022/10/21 05:54:28;;;;;;;13.90;7.40;;;;;;;1.60;100.00;100717.72;6283561;28;20043;-75
2022/10/21 05:57:31;;;;;;;16.92;7.80;;;;;;;1.66;100.00;100726.25;6287979;28;20408;-76
2022/10/21 06:00:32;;;;;;;19.42;8.95;;;;;;;1.70;100.00;100725.34;6282954;28;20120;-77
2022/10/21 06:03:33;;;;;;;12.38;5.45;;;;;;;1.77;100.00;100729.50;6294809;28;20055;-76
2022/10/21 06:06:36;;;;;;;9.73;4.00;;;;;;;1.93;100.00;100748.16;6293768;28;20035;-75
2022/10/21 06:09:37;;;;;;;8.50;4.03;;;;;;;1.98;100.00;100754.97;6281368;28;20044;-74
2022/10/21 06:12:41;;;;;;;5.38;2.78;;;;;;;2.06;100.00;100751.41;6275136;28;20037;-75
2022/10/21 06:15:42;;;;;;;3.22;2.28;;;;;;;2.15;100.00;100752.13;6274734;28;20059;-75
2022/10/21 06:18:43;;;;;;;5.00;2.55;;;;;;;2.26;100.00;100744.22;6273392;28;20053;-75
2022/10/21 06:21:43;;;;;;;3.20;2.20;;;;;;;2.37;100.00;100752.66;6274761;28;20040;-77
2022/10/21 06:24:45;;;;;;;5.05;2.03;;;;;;;2.44;100.00;100747.41;6274663;28;20473;-75
2022/10/21 06:27:46;;;;;;;4.15;2.20;;;;;;;2.51;100.00;100728.38;6273853;28;20128;-77
2022/10/21 06:30:47;;;;;;;3.90;2.63;;;;;;;2.59;100.00;100731.66;6273951;28;20049;-76
2022/10/21 06:33:50;;;;;;;3.80;2.60;;;;;;;2.63;100.00;100738.47;6273919;28;20045;-76
2022/10/21 06:36:51;;;;;;;5.35;3.50;;;;;;;2.77;100.00;100758.84;6274056;28;20041;-76
2022/10/21 06:39:51;;;;;;;6.93;2.58;;;;;;;2.90;100.00;100755.16;6273651;28;20044;-76
2022/10/21 06:42:55;;;;;;;4.28;2.17;;;;;;;2.97;100.00;100740.47;6274959;28;20041;-76
2022/10/21 06:46:00;;;;;;;5.65;2.83;;;;;;;3.14;100.00;100745.28;6274754;28;20053;-76
2022/10/21 06:49:01;;;;;;;11.65;2.80;;;;;;;3.25;100.00;100756.22;6273539;28;20048;-76
2022/10/21 06:52:02;;;;;;;4.68;3.28;;;;;;;3.44;100.00;100767.06;6274668;28;20040;-76
2022/10/21 06:55:03;;;;;;;3.25;2.15;;;;;;;3.66;100.00;100764.88;6274586;28;20056;-77
2022/10/21 06:58:04;;;;;;;7.35;2.72;;;;;;;3.81;100.00;100766.28;6273226;28;20084;-77
2022/10/21 07:01:10;;;;;;;7.72;3.08;;;;;;;3.97;100.00;100761.63;6273261;28;20041;-76
2022/10/21 07:04:10;;;;;;;3.75;1.92;;;;;;;4.12;100.00;100760.41;6256247;28;20049;-77
2022/10/21 07:07:11;;;;;;;4.10;2.50;;;;;;;4.27;100.00;100764.41;6272197;28;20517;-75
2022/10/21 07:10:15;;;;;;;3.80;2.67;;;;;;;4.47;100.00;100767.34;6272957;28;20068;-76
2022/10/21 07:13:15;;;;;;;2.35;1.95;;;;;;;4.68;100.00;100771.13;6272961;28;20091;-76
2022/10/21 07:16:21;;;;;;;5.20;3.03;;;;;;;4.83;100.00;100772.47;6272655;28;20500;-75
2022/10/21 07:19:24;;;;;;;6.00;2.58;;;;;;;5.03;100.00;100777.13;6272547;28;20053;-75
2022/10/21 07:22:27;;;;;;;4.32;2.72;;;;;;;5.23;100.00;100769.69;6273912;28;20079;-76
2022/10/21 07:25:28;;;;;;;4.40;3.03;;;;;;;5.41;99.54;100773.47;6272440;28;20518;-75
2022/10/21 07:28:29;;;;;;;3.35;2.28;;;;;;;5.62;95.79;100778.94;6272484;28;20055;-76
2022/10/21 07:31:33;;;;;;;6.63;2.75;;;;;;;5.87;95.94;100781.69;6272470;28;20041;-75
2022/10/21 07:34:33;;;;;;;11.73;2.45;;;;;;;6.05;93.31;100783.75;6273685;28;20041;-74
2022/10/21 07:37:34;;;;;;;4.65;2.92;;;;;;;6.23;94.14;100779.72;6273491;28;20489;-75
2022/10/21 07:40:40;;;;;;;4.03;2.17;;;;;;;6.33;91.10;100775.09;6273461;28;20052;-76
2022/10/21 07:43:41;;;;;;;7.35;2.25;;;;;;;6.42;88.10;100768.75;6273524;28;20049;-77
2022/10/21 07:46:43;;;;;;;4.00;2.30;;;;;;;6.61;88.48;100769.00;6273315;28;20041;-75
2022/10/21 07:49:43;;;;;;;5.38;2.50;;;;;;;6.91;88.93;100766.28;6255367;28;20135;-75
2022/10/21 07:52:44;;;;;;;5.97;2.55;;;;;;;7.21;85.22;100774.75;6273252;28;20051;-76
2022/10/21 07:55:45;;;;;;;5.70;2.88;;;;;;;7.35;80.66;100782.03;6273275;28;20052;-77
2022/10/21 07:58:46;;;;;;;7.05;2.92;;;;;;;7.51;79.52;100769.34;6271885;28;20123;-75
2022/10/21 08:01:47;;;;;;;4.55;2.80;;;;;;;7.67;80.08;100773.91;6271830;28;20041;-75
2022/10/21 08:04:47;;;;;;;6.13;2.63;;;;;;;7.81;79.31;100764.78;6272866;28;20477;-75
2022/10/21 08:07:48;;;;;;;2.92;1.98;;;;;;;7.95;77.01;100761.63;6272962;28;20040;-75
2022/10/21 08:10:50;;;;;;;3.70;2.10;;;;;;;8.23;75.42;100761.38;6271450;28;20059;-76
2022/10/21 08:13:52;;;;;;;4.50;2.80;;;;;;;8.27;75.26;100762.97;6271587;28;20065;-77
2022/10/21 08:16:54;;;;;;;2.88;1.98;;;;;;;8.63;75.56;100765.00;6272432;28;20136;-77
2022/10/21 08:19:55;;;;;;;5.78;2.58;;;;;;;8.81;74.47;100763.38;6254642;28;20060;-75
2022/10/21 08:22:56;;;;;;;2.72;1.80;;;;;;;8.98;71.41;100762.69;6271271;28;20418;-75
2022/10/21 08:25:59;;;;;;;5.25;2.00;;;;;;;9.31;70.72;100757.75;6254656;28;20049;-77
2022/10/21 08:29:06;;;;;;;14.90;2.38;;;;;;;9.35;68.40;100754.09;6272407;28;20037;-76
2022/10/21 08:32:06;;;;;;;5.63;2.05;;;;;;;9.70;70.29;100751.66;6272191;28;20049;-75
2022/10/21 08:35:07;;;;;;;3.65;2.10;;;;;;;9.93;68.62;100742.75;6270996;28;20064;-76
2022/10/21 08:38:09;;;;;;;3.30;2.25;;;;;;;10.32;67.30;100743.56;6270894;28;20064;-76
2022/10/21 08:41:22;;;;;;;7.07;2.80;;;;;;;10.50;66.51;100742.66;6272119;28;20041;-77
2022/10/21 08:44:34;;;;;;;4.60;2.58;;;;;;;10.63;64.20;100740.25;6271970;28;20044;-77
2022/10/21 08:47:48;;;;;;;3.30;1.63;;;;;;;10.72;64.24;100738.94;6254177;28;20114;-76
2022/10/21 08:50:51;;;;;;;4.10;1.88;;;;;;;10.98;63.14;100738.47;6270910;28;20098;-76
2022/10/21 08:53:55;;;;;;;10.07;2.55;;;;;;;11.05;62.91;100744.19;6272086;28;20037;-77
2022/10/21 08:57:02;;;;;;;3.45;1.55;;;;;;;11.27;60.97;100739.53;6271744;28;20056;-76
2022/10/21 09:00:14;;;;;;;1.52;1.17;;;;;;;11.45;60.77;100739.50;6270305;28;20136;-75
2022/10/21 09:03:19;;;;;;;2.67;1.58;;;;;;;11.44;58.72;100732.56;6270443;28;20045;-76
2022/10/21 09:06:23;;;;;;;3.85;1.60;;;;;;;11.55;58.27;100727.63;6270248;28;20048;-77
2022/10/21 09:09:33;;;;;;;2.22;1.35;;;;;;;11.74;60.41;100734.47;6271485;28;20051;-76
2022/10/21 09:12:55;;;;;;;2.97;1.88;;;;;;;11.87;57.80;100727.59;6271564;28;20044;-75
2022/10/21 09:16:18;;;;;;;5.33;1.80;;;;;;;12.07;56.47;100729.97;6270061;28;20053;-75
2022/10/21 09:20:00;;;;;;;2.80;1.65;;;;;;;11.92;56.98;100732.59;6270246;28;20055;-76
2022/10/21 09:23:19;;;;;;;1.70;1.23;;;;;;;12.12;56.94;100741.97;6270238;28;20390;-77
2022/10/21 09:26:34;;;;;;;1.90;1.27;;;;;;;12.25;57.35;100740.31;6269901;28;20056;-77
2022/10/21 09:29:48;;;;;;;1.83;1.50;;;;;;;12.43;57.16;100741.88;6252911;28;20076;-76
2022/10/21 09:32:54;;;;;;;2.15;1.33;;;;;;;12.42;55.71;100718.44;6269927;28;20407;-76
2022/10/21 09:36:02;;;;;;;4.75;2.10;;;;;;;12.47;55.82;100724.22;6253380;28;20479;-75
2022/10/21 09:39:08;;;;;;;3.05;1.70;;;;;;;12.78;54.56;100727.66;6269996;28;20033;-75
2022/10/21 09:42:12;;;;;;;2.05;1.30;;;;;;;12.68;55.00;100720.38;6271086;28;20048;-76
2022/10/21 09:45:23;;;;;;;2.88;1.58;;;;;;;12.73;53.61;100716.63;6269799;28;20048;-77
2022/10/21 09:48:29;;;;;;;1.63;1.48;;;;;;;12.68;53.93;100711.66;6253527;28;20049;-76
2022/10/21 09:51:38;;;;;;;3.60;1.25;;;;;;;12.48;54.36;100708.44;6269760;28;20132;-77
2022/10/21 09:54:41;;;;;;;6.25;1.40;;;;;;;12.61;55.25;100708.56;6269879;28;20044;-75
2022/10/21 09:57:58;;;;;;;3.70;1.50;;;;;;;12.88;53.05;100707.84;6269809;28;20040;-76
2022/10/21 10:00:58;;;;;;;1.77;1.25;;;;;;;13.19;52.79;100701.59;6252889;28;20461;-75
2022/10/21 10:04:10;;;;;;;3.53;1.52;;;;;;;13.45;52.03;100693.94;6269774;28;20043;-76
2022/10/21 10:07:34;;;;;;;1.73;1.10;;;;;;;13.76;50.58;100681.50;6270770;28;20067;-76
2022/10/21 10:10:34;;;;;;;1.48;1.00;;;;;;;13.76;49.58;100676.25;6269648;28;20587;-76
2022/10/21 10:13:36;;;;;;;8.80;1.08;;;;;;;13.89;49.07;100679.75;6271111;28;20060;-76
2022/10/21 10:16:37;;;;;;;5.03;1.33;;;;;;;13.96;48.53;100673.16;6252772;28;20075;-76
2022/10/21 10:19:38;;;;;;;1.25;0.95;;;;;;;14.03;49.70;100670.97;6271233;28;20392;-76
2022/10/21 10:22:40;;;;;;;3.00;1.30;;;;;;;14.18;49.91;100663.88;6269393;28;20048;-76
2022/10/21 10:25:49;;;;;;;1.83;1.08;;;;;;;14.25;49.14;100666.00;6270584;28;20140;-75
2022/10/21 10:29:12;;;;;;;1.23;1.13;;;;;;;14.21;49.56;100655.81;6270638;28;20124;-75
2022/10/21 10:32:15;;;;;;;1.10;0.95;;;;;;;14.25;47.88;100665.16;6261991;28;20118;-75
2022/10/21 10:35:29;;;;;;;1.98;1.27;;;;;;;13.85;49.53;100658.09;6270457;28;20049;-76
2022/10/21 10:38:36;;;;;;;1.98;1.05;;;;;;;13.61;48.77;100657.94;6269272;28;20056;-75
2022/10/21 10:41:39;;;;;;;2.17;1.42;;;;;;;13.74;49.38;100657.97;6271697;28;20056;-75
2022/10/21 10:44:42;;;;;;;1.67;1.05;;;;;;;14.06;49.33;100655.88;6274729;28;20107;-75
2022/10/21 10:47:47;;;;;;;3.03;1.20;;;;;;;14.25;47.57;100655.50;6273598;28;20388;-76
2022/10/21 10:50:49;;;;;;;2.78;1.38;;;;;;;14.56;47.37;100644.72;6273588;28;20037;-76
2022/10/21 10:54:18;;;;;;;1.30;1.10;;;;;;;14.61;46.50;100653.13;6274634;28;20047;-76
2022/10/21 10:57:27;;;;;;;2.10;1.30;;;;;;;14.50;45.75;100646.81;6272131;28;20064;-76
2022/10/21 11:00:39;;;;;;;1.38;1.10;;;;;;;14.66;47.55;100643.13;6256632;28;20053;-76
2022/10/21 11:03:55;;;;;;;2.30;1.10;;;;;;;15.04;46.18;100637.84;6273124;28;20044;-76
2022/10/21 11:07:20;;;;;;;3.63;1.67;;;;;;;15.00;47.81;100627.69;6274274;28;20499;-75
2022/10/21 11:10:56;;;;;;;2.38;1.30;;;;;;;15.13;46.84;100630.28;6273249;28;20052;-77
2022/10/21 11:13:57;;;;;;;3.17;1.60;;;;;;;14.87;45.51;100618.03;6264069;28;20057;-75
2022/10/21 11:17:11;;;;;;;2.00;1.20;;;;;;;14.70;45.13;100607.84;6274010;28;20501;-76
2022/10/21 11:20:20;;;;;;;4.15;1.30;;;;;;;14.70;45.44;100597.34;6274036;28;20048;-75
2022/10/21 11:23:45;;;;;;;2.75;1.50;;;;;;;14.89;47.09;100600.38;6272661;28;20037;-75
2022/10/21 11:26:56;;;;;;;6.03;1.30;;;;;;;15.22;46.03;100590.19;6273759;28;20459;-76
2022/10/21 11:42:54;;;;;;;6.68;3.90;;;;;;;16.05;43.78;100560.44;6396706;27;159350;-78
2022/10/21 11:46:17;;;;;;;4.90;1.92;;;;;;;15.96;43.55;100559.34;6376746;27;20054;-76
2022/10/21 11:49:33;;;;;;;5.63;2.20;;;;;;;15.76;45.41;100554.72;6359398;27;20047;-76
2022/10/21 11:52:56;;;;;;;2.78;1.73;;;;;;;15.70;43.78;100553.34;6376541;27;20467;-76
2022/10/21 11:56:27;;;;;;;3.38;1.73;;;;;;;15.55;44.26;100557.16;6376574;27;20070;-76
2022/10/21 12:00:05;;;;;;;2.28;1.67;;;;;;;15.25;46.75;100561.88;6359380;27;20059;-76
2022/10/21 12:03:12;;;;;;;1.92;1.63;;;;;;;15.46;47.45;100542.84;6376342;27;20450;-78
2022/10/21 12:06:37;;;;;;;5.53;2.00;;;;;;;15.60;45.01;100539.22;6359058;27;20127;-78
2022/10/21 12:09:48;;;;;;;1.88;1.52;;;;;;;15.47;44.14;100532.22;6364114;27;20155;-78
2022/10/21 12:12:52;;;;;;;4.10;1.80;;;;;;;15.35;44.80;100527.88;6376071;27;20050;-78
2022/10/21 12:15:59;;;;;;;7.85;2.15;;;;;;;15.34;45.18;100527.97;6376025;27;20114;-78
2022/10/21 12:19:05;;;;;;;3.42;1.58;;;;;;;15.29;46.04;100521.28;6358779;27;20107;-78
2022/10/21 12:22:09;;;;;;;2.70;1.63;;;;;;;15.41;46.85;100518.72;6394452;27;20039;-78
2022/10/21 12:25:15;;;;;;;2.58;1.58;;;;;;;15.45;45.77;100521.00;6375866;27;20039;-78
2022/10/21 12:28:30;;;;;;;3.90;2.45;;;;;;;15.45;46.26;100507.84;6375709;27;20456;-78
2022/10/21 12:31:44;;;;;;;3.20;1.60;;;;;;;15.21;44.70;100486.00;6393995;27;20121;-78
2022/10/21 12:34:45;;;;;;;8.40;1.42;;;;;;;15.44;46.60;100502.69;6393896;27;20035;-78
2022/10/21 12:37:49;;;;;;;1.95;1.40;;;;;;;15.70;45.08;100504.22;6393797;27;20038;-78
2022/10/21 12:41:10;;;;;;;2.17;1.30;;;;;;;15.74;44.25;100506.66;6393720;27;20508;-78
2022/10/21 12:44:24;;;;;;;3.40;1.30;;;;;;;15.55;43.97;100488.75;6357468;27;20055;-78
2022/10/21 12:47:30;;;;;;;2.53;1.40;;;;;;;15.42;43.98;100491.44;6358156;27;20410;-78
2022/10/21 12:50:32;;;;;;;3.90;1.35;;;;;;;15.39;45.84;100494.31;6341093;27;20494;-78
2022/10/21 12:53:38;;;;;;;4.60;2.28;;;;;;;15.16;45.60;100482.88;6376473;27;20436;-78
2022/10/21 12:56:47;;;;;;;4.22;2.60;;;;;;;15.31;45.55;100477.31;6376463;27;20047;-78
2022/10/21 12:59:48;;;;;;;4.57;1.95;;;;;;;15.31;45.61;100464.16;6357863;27;20549;-78
2022/10/21 13:03:17;;;;;;;15.30;1.55;;;;;;;15.28;44.50;100461.78;6376098;27;20091;-78
2022/10/21 13:06:51;;;;;;;1.60;1.08;;;;;;;15.33;43.74;100471.94;6357702;27;20479;-78
2022/10/21 13:09:57;;;;;;;4.25;1.38;;;;;;;15.22;44.08;100462.22;6340257;27;20043;-79
2022/10/21 13:13:36;;;;;;;2.72;1.30;;;;;;;15.15;45.07;100460.16;6376116;27;20042;-78
2022/10/21 13:16:40;;;;;;;1.98;1.27;;;;;;;14.99;44.00;100456.03;6340593;27;20070;-78
2022/10/21 13:19:43;;;;;;;3.13;1.40;;;;;;;14.95;45.57;100449.34;6340534;27;20101;-78
2022/10/21 13:22:46;;;;;;;3.60;1.70;;;;;;;14.81;45.58;100439.81;6357353;27;20035;-78
2022/10/21 13:26:13;;;;;;;2.80;1.77;;;;;;;14.71;44.66;100430.94;6357553;27;20042;-78
2022/10/21 13:29:20;;;;;;;2.50;1.38;;;;;;;14.91;46.50;100440.84;6356933;27;20082;-78
2022/10/21 13:32:30;;;;;;;8.43;1.70;;;;;;;14.95;44.95;100430.09;6340166;27;20482;-78
2022/10/21 13:35:45;;;;;;;2.90;1.35;;;;;;;15.10;44.06;100437.69;6357169;27;20039;-78
2022/10/21 13:38:51;;;;;;;3.65;1.63;;;;;;;15.21;44.72;100426.38;6357032;27;20047;-78
2022/10/21 13:42:09;;;;;;;2.25;1.40;;;;;;;15.24;44.38;100420.91;6348482;28;20048;-78
2022/10/21 13:45:26;;;;;;;3.80;1.80;;;;;;;15.39;45.71;100425.97;6348540;28;20040;-78
2022/10/21 13:48:26;;;;;;;2.35;1.58;;;;;;;15.15;45.65;100415.47;6348176;28;20062;-78
2022/10/21 13:51:34;;;;;;;1.55;1.42;;;;;;;15.14;45.88;100412.03;6331231;28;20444;-78
2022/10/21 13:54:34;;;;;;;2.65;1.67;;;;;;;14.99;46.67;100402.63;6330267;28;20051;-78
2022/10/21 13:57:35;;;;;;;11.82;1.50;;;;;;;14.90;46.69;100406.78;6348178;28;20048;-78
2022/10/21 14:00:38;;;;;;;5.43;2.20;;;;;;;14.84;47.05;100415.94;6347940;28;20051;-76
2022/10/21 14:03:40;;;;;;;3.90;2.22;;;;;;;14.83;46.40;100426.59;6349250;28;20039;-77
2022/10/21 14:06:49;;;;;;;4.32;1.75;;;;;;;14.86;46.52;100419.28;6330936;28;20043;-76
2022/10/21 14:09:57;;;;;;;4.10;2.20;;;;;;;14.77;46.18;100414.72;6347912;28;20043;-76
2022/10/21 14:12:58;;;;;;;14.80;4.03;;;;;;;14.67;46.54;100414.56;6347824;28;20039;-76
2022/10/21 14:16:00;;;;;;;10.70;5.28;;;;;;;14.70;46.74;100408.22;6347814;28;20074;-76
2022/10/21 14:19:07;;;;;;;7.22;2.15;;;;;;;14.64;47.23;100395.53;6348659;28;20043;-77
2022/10/21 14:22:13;;;;;;;30.13;5.80;;;;;;;14.49;46.62;100406.16;6347615;28;20486;-77
2022/10/21 14:25:15;;;;;;;9.77;7.00;;;;;;;14.33;47.88;100395.13;6347531;28;20087;-77
2022/10/21 14:28:19;;;;;;;17.45;11.45;;;;;;;14.22;48.54;100398.47;6347545;28;20039;-76
2022/10/21 14:31:23;;;;;;;19.15;7.20;;;;;;;14.21;48.61;100388.13;6330555;28;20048;-75
2022/10/21 14:34:28;;;;;;;6.32;3.00;;;;;;;14.18;49.25;100381.28;6347244;28;20094;-76
2022/10/21 14:37:45;;;;;;;7.55;3.10;;;;;;;14.02;48.57;100364.94;6330120;28;20055;-77
2022/10/21 14:40:57;;;;;;;4.30;2.30;;;;;;;14.06;49.24;100366.41;6352553;27;20059;-77